Artesia Camp, New Mexico
Current Conditions -  °F | °C
As of 4:55 PM on Saturday 22 Nov 2014 (Local Time) from KALM Reporting Station
Clear Clear  
Wind Chill: 59°   Ceiling: Unl
Heat Index: 59°   Visibility: 10mi
Dew Point: 19°   Wind: 0mph
Humidity: 22%   Direction: NA
Pressure: 29.9"   Gusts: NA
Location:  32.7847°N, 105.644°W
Report Text: KALM 222355Z AUTO 00000KT 10SM CLR 15/M07 A2990 RMK AO2
Loading
Personal Weather Stations






























Interactive Weather Map New forecast layout! Learn more

10-Day Weather Forecast

Advertisements
Track Severe Weather on mobile